createdAt,value
2023-05-16T00:00:48.181Z,755.42
2023-05-16T00:03:17.155Z,760.35
2023-05-16T00:05:45.982Z,721.05
2023-05-16T00:08:14.502Z,724.17
2023-05-16T00:10:42.929Z,752.35
2023-05-16T00:13:11.731Z,716.30
2023-05-16T00:15:41.852Z,738.60
2023-05-16T00:18:10.471Z,732.25
2023-05-16T00:20:38.883Z,748.35
2023-05-16T00:23:07.502Z,755.50
2023-05-16T00:25:36.185Z,738.90
2023-05-16T00:28:04.708Z,749.38
2023-05-16T00:30:33.073Z,718.00
2023-05-16T00:33:03.245Z,705.17
2023-05-16T00:35:31.831Z,716.03
2023-05-16T00:38:00.255Z,702.30
2023-05-16T00:40:30.205Z,695.10
2023-05-16T00:42:58.926Z,694.45
2023-05-16T00:45:27.436Z,717.90
2023-05-16T00:47:56.060Z,715.65
2023-05-16T00:50:26.210Z,691.13
2023-05-16T00:52:55.155Z,710.58
2023-05-16T00:55:23.791Z,707.13
2023-05-16T00:57:52.481Z,728.17
2023-05-16T01:00:22.748Z,688.45
2023-05-16T01:02:53.344Z,686.42
2023-05-16T01:05:22.208Z,697.83
2023-05-16T01:07:52.183Z,704.25
2023-05-16T01:10:20.937Z,693.88
2023-05-16T01:12:58.399Z,718.42
2023-05-16T01:15:29.960Z,728.13
2023-05-16T01:18:02.222Z,703.08
2023-05-16T01:20:38.353Z,689.92
2023-05-16T01:23:29.681Z,694.08
2023-05-16T01:25:59.683Z,691.10
2023-05-16T01:28:30.231Z,696.83
2023-05-16T01:30:58.839Z,693.58
2023-05-16T01:33:27.411Z,699.17
2023-05-16T01:36:00.141Z,692.65
2023-05-16T01:38:31.814Z,690.63
2023-05-16T01:41:03.829Z,702.45
2023-05-16T01:43:36.781Z,713.15
2023-05-16T01:46:10.916Z,706.78
2023-05-16T01:48:46.031Z,678.08
2023-05-16T01:51:15.176Z,636.50
2023-05-16T01:53:45.401Z,672.90
2023-05-16T01:56:17.607Z,586.60
2023-05-16T01:58:47.999Z,678.85
2023-05-16T02:01:16.455Z,720.40
2023-05-16T02:03:44.894Z,630.97
2023-05-16T02:06:13.686Z,618.78
2023-05-16T02:08:42.130Z,590.47
2023-05-16T02:11:10.564Z,711.25
2023-05-16T02:13:38.895Z,652.50
2023-05-16T02:16:08.845Z,646.08
2023-05-16T02:18:37.437Z,718.22
2023-05-16T02:21:05.951Z,688.10
2023-05-16T02:23:34.380Z,714.67
2023-05-16T02:26:04.480Z,729.58
2023-05-16T02:28:32.910Z,711.58
2023-05-16T02:31:02.686Z,725.58
2023-05-16T02:33:32.559Z,718.47
2023-05-16T02:36:01.300Z,715.08
2023-05-16T02:38:29.646Z,696.28
2023-05-16T02:40:58.162Z,750.10
2023-05-16T02:43:27.080Z,730.97
2023-05-16T02:45:55.528Z,715.33
2023-05-16T02:48:24.075Z,711.88
2023-05-16T02:50:54.766Z,711.53
2023-05-16T02:53:23.188Z,709.67
2023-05-16T02:55:51.608Z,705.50
2023-05-16T02:58:20.113Z,699.70
2023-05-16T03:00:48.604Z,729.63
2023-05-16T03:03:17.166Z,706.05
2023-05-16T03:05:46.241Z,762.90
2023-05-16T03:08:16.176Z,716.80
2023-05-16T03:10:44.644Z,735.08
2023-05-16T03:13:12.970Z,702.92
2023-05-16T03:15:41.369Z,734.17
2023-05-16T03:18:09.800Z,739.15
2023-05-16T03:20:38.651Z,736.90
2023-05-16T03:23:08.276Z,711.38
2023-05-16T03:25:38.447Z,723.03
2023-05-16T03:28:07.794Z,725.17
2023-05-16T03:30:36.571Z,724.83
2023-05-16T03:33:05.264Z,722.50
2023-05-16T03:35:34.119Z,726.72
2023-05-16T03:38:02.520Z,743.83
2023-05-16T03:40:30.889Z,684.95
2023-05-16T03:43:00.801Z,712.05
2023-05-16T03:45:30.483Z,714.58
2023-05-16T03:47:59.115Z,714.50
2023-05-16T03:50:27.553Z,731.10
2023-05-16T03:52:55.977Z,691.47
2023-05-16T03:55:24.402Z,704.70
2023-05-16T03:57:53.290Z,712.75
2023-05-16T04:00:23.154Z,740.47
2023-05-16T04:02:51.637Z,726.15
2023-05-16T04:05:20.524Z,710.63
2023-05-16T04:07:48.991Z,545.83
2023-05-16T04:10:17.478Z,669.13
2023-05-16T04:12:46.607Z,620.88
2023-05-16T04:15:15.126Z,666.55
2023-05-16T04:17:45.404Z,723.65
2023-05-16T04:20:14.265Z,710.75
2023-05-16T04:22:42.992Z,647.58
2023-05-16T04:25:12.455Z,655.85
2023-05-16T04:27:41.067Z,725.22
2023-05-16T04:30:11.342Z,737.92
2023-05-16T04:32:39.767Z,714.70
2023-05-16T04:35:10.457Z,730.13
2023-05-16T04:37:39.009Z,719.35
2023-05-16T04:40:10.989Z,735.72
2023-05-16T04:42:39.727Z,724.17
2023-05-16T04:45:11.034Z,843.75
2023-05-16T04:47:39.681Z,734.22
2023-05-16T04:50:11.004Z,727.92
2023-05-16T04:52:39.589Z,825.80
2023-05-16T04:55:08.803Z,733.35
2023-05-16T04:57:37.201Z,779.92
2023-05-16T05:00:08.974Z,737.17
2023-05-16T05:02:38.429Z,718.53
2023-05-16T05:05:08.561Z,752.55
2023-05-16T05:07:38.636Z,796.58
2023-05-16T05:10:08.172Z,760.42
2023-05-16T05:12:37.310Z,741.95
2023-05-16T05:15:06.649Z,779.58
2023-05-16T05:17:35.532Z,747.10
2023-05-16T05:20:07.295Z,747.72
2023-05-16T05:22:37.092Z,734.42
2023-05-16T05:25:06.572Z,791.72
2023-05-16T05:27:35.078Z,750.13
2023-05-16T05:30:04.226Z,737.83
2023-05-16T05:32:32.969Z,767.60
2023-05-16T05:35:01.623Z,799.33
2023-05-16T05:37:30.733Z,789.00
2023-05-16T05:40:00.587Z,839.65
2023-05-16T05:42:29.014Z,825.00
2023-05-16T05:44:57.709Z,731.80
2023-05-16T05:47:26.402Z,842.55
2023-05-16T05:49:55.084Z,911.72
2023-05-16T05:52:23.556Z,830.58
2023-05-16T05:54:52.043Z,797.72
2023-05-16T05:57:22.148Z,766.72
2023-05-16T05:59:50.795Z,825.17
2023-05-16T06:02:19.480Z,785.60
2023-05-16T06:04:48.041Z,822.72
2023-05-16T06:07:16.976Z,751.30
2023-05-16T06:09:45.449Z,786.97
2023-05-16T06:12:14.065Z,773.03
2023-05-16T06:14:43.822Z,719.80
2023-05-16T06:17:12.281Z,805.05
2023-05-16T06:19:41.057Z,723.55
2023-05-16T06:22:09.583Z,764.63
2023-05-16T06:24:38.211Z,762.92
2023-05-16T06:27:07.221Z,779.60
2023-05-16T06:29:35.827Z,845.17
2023-05-16T06:32:05.816Z,753.90
2023-05-16T06:34:34.284Z,759.42
2023-05-16T06:37:03.871Z,741.22
2023-05-16T06:39:32.798Z,736.90
2023-05-16T06:42:01.377Z,756.65
2023-05-16T06:44:29.873Z,740.75
2023-05-16T06:46:58.811Z,769.10
2023-05-16T06:49:28.783Z,759.58
2023-05-16T06:51:57.224Z,789.95
2023-05-16T06:54:26.008Z,740.53
2023-05-16T06:56:54.591Z,718.40
2023-05-16T06:59:23.087Z,753.55
2023-05-16T07:01:51.512Z,744.13
2023-05-16T07:04:19.975Z,797.60
2023-05-16T07:06:49.771Z,746.20
2023-05-16T07:09:18.497Z,768.08
2023-05-16T07:11:47.209Z,757.55
2023-05-16T07:14:15.591Z,718.63
2023-05-16T07:16:44.271Z,724.00
2023-05-16T07:19:12.836Z,711.75
2023-05-16T07:21:41.728Z,770.88
2023-05-16T07:24:11.694Z,731.33
2023-05-16T07:26:40.986Z,704.65
2023-05-16T07:29:09.805Z,718.83
2023-05-16T07:31:38.366Z,725.67
2023-05-16T07:34:06.815Z,725.28
2023-05-16T07:36:36.153Z,715.58
2023-05-16T07:39:04.837Z,738.95
2023-05-16T07:41:34.823Z,760.22
2023-05-16T07:44:03.248Z,723.45
2023-05-16T07:46:31.811Z,696.30
2023-05-16T07:49:00.342Z,698.70
2023-05-16T07:51:28.921Z,707.10
2023-05-16T07:53:57.521Z,784.00
2023-05-16T07:56:25.977Z,796.78
2023-05-16T07:58:57.326Z,728.33
2023-05-16T08:01:26.888Z,720.40
2023-05-16T08:03:55.695Z,731.45
2023-05-16T08:06:24.711Z,797.55
2023-05-16T08:08:53.636Z,761.28
2023-05-16T08:11:22.748Z,777.70
2023-05-16T08:13:51.475Z,790.47
2023-05-16T08:16:22.485Z,758.42
2023-05-16T08:18:51.165Z,769.13
2023-05-16T08:21:19.602Z,766.38
2023-05-16T08:23:48.036Z,766.90
2023-05-16T08:26:17.126Z,783.33
2023-05-16T08:28:45.793Z,729.33
2023-05-16T08:31:16.570Z,707.08
2023-05-16T08:33:46.454Z,748.20
2023-05-16T08:36:15.863Z,699.70
2023-05-16T08:38:44.367Z,868.83
2023-05-16T08:41:12.857Z,731.90
2023-05-16T08:43:41.546Z,723.60
2023-05-16T08:46:10.902Z,793.38
2023-05-16T08:48:41.157Z,776.42
2023-05-16T08:51:11.770Z,756.47
2023-05-16T08:53:43.955Z,753.03
2023-05-16T08:56:12.863Z,770.40
2023-05-16T08:58:41.487Z,758.63
2023-05-16T09:01:10.430Z,881.70
2023-05-16T09:03:39.278Z,770.75
2023-05-16T09:06:08.431Z,764.72
2023-05-16T09:08:38.436Z,787.38
2023-05-16T09:11:07.085Z,777.40
2023-05-16T09:13:35.727Z,844.72
2023-05-16T09:16:11.289Z,717.00
2023-05-16T09:18:40.408Z,833.05
2023-05-16T09:21:09.008Z,789.10
2023-05-16T09:23:39.293Z,716.42
2023-05-16T09:26:08.432Z,773.15
2023-05-16T09:28:39.565Z,727.80
2023-05-16T09:31:22.176Z,760.55
2023-05-16T09:33:51.241Z,756.65
2023-05-16T09:36:19.724Z,857.15
2023-05-16T09:38:51.097Z,791.30
2023-05-16T09:41:19.669Z,793.03
2023-05-16T09:43:48.367Z,784.22
2023-05-16T09:46:17.525Z,869.70
2023-05-16T09:48:47.306Z,846.67
2023-05-16T09:51:16.358Z,750.80
2023-05-16T09:53:45.565Z,786.05
2023-05-16T09:56:16.986Z,801.53
2023-05-16T09:58:47.746Z,806.03
2023-05-16T10:01:16.277Z,747.80
2023-05-16T10:03:44.949Z,760.92
2023-05-16T10:06:15.134Z,746.65
2023-05-16T10:08:44.624Z,765.05
2023-05-16T10:11:15.261Z,828.42
2023-05-16T10:13:46.100Z,754.20
2023-05-16T10:16:16.051Z,760.30
2023-05-16T10:18:44.575Z,868.65
2023-05-16T10:21:16.906Z,880.35
2023-05-16T10:23:49.766Z,744.92
2023-05-16T10:26:19.878Z,819.95
2023-05-16T10:28:49.297Z,746.10
2023-05-16T10:31:17.832Z,799.15
2023-05-16T10:33:46.960Z,761.17
2023-05-16T10:36:17.414Z,773.42
2023-05-16T10:38:49.778Z,857.40
2023-05-16T10:41:20.146Z,742.03
2023-05-16T10:43:57.983Z,744.03
2023-05-16T10:46:28.005Z,758.58
2023-05-16T10:48:57.890Z,735.33
2023-05-16T10:51:38.763Z,752.22
2023-05-16T10:54:09.264Z,749.83
2023-05-16T10:56:39.350Z,718.53
2023-05-16T10:59:25.187Z,738.10
2023-05-16T11:01:55.041Z,736.22
2023-05-16T11:04:23.544Z,703.75
2023-05-16T11:06:53.783Z,719.75
2023-05-16T11:09:28.076Z,778.83
2023-05-16T11:14:42.423Z,770.30
2023-05-16T11:17:13.287Z,764.63
2023-05-16T11:19:43.621Z,700.10
2023-05-16T11:22:26.654Z,668.08
2023-05-16T11:24:57.417Z,630.40
2023-05-16T11:27:29.296Z,607.28
2023-05-16T11:30:03.804Z,670.50
2023-05-16T11:32:35.265Z,692.05
2023-05-16T11:35:04.645Z,596.33
2023-05-16T11:37:33.165Z,657.95
2023-05-16T11:40:02.281Z,658.72
2023-05-16T11:42:35.359Z,564.65
2023-05-16T11:45:08.222Z,552.55
2023-05-16T11:47:38.902Z,635.63
2023-05-16T11:50:09.925Z,620.75
2023-05-16T11:52:39.907Z,673.90
2023-05-16T11:55:11.035Z,686.35
2023-05-16T11:57:42.049Z,719.33
2023-05-16T12:00:17.679Z,724.65
2023-05-16T12:02:47.714Z,722.83
2023-05-16T12:05:17.676Z,703.33
2023-05-16T12:07:47.023Z,755.03
2023-05-16T12:10:16.786Z,703.17
2023-05-16T12:12:48.552Z,698.38
2023-05-16T12:15:17.304Z,728.65
2023-05-16T12:17:46.343Z,735.13
2023-05-16T12:20:16.692Z,724.40
2023-05-16T12:22:46.356Z,746.63
2023-05-16T12:25:23.844Z,714.75
2023-05-16T12:27:54.876Z,720.50
2023-05-16T12:30:27.632Z,744.08
2023-05-16T12:32:59.780Z,694.33
2023-05-16T12:35:32.229Z,707.63
2023-05-16T12:38:01.082Z,885.70
2023-05-16T12:40:30.591Z,772.15
2023-05-16T12:43:00.657Z,716.78
2023-05-16T12:45:34.049Z,759.55
2023-05-16T12:48:07.841Z,870.28
2023-05-16T12:50:36.768Z,727.38
2023-05-16T12:53:05.334Z,788.22
2023-05-16T12:55:34.091Z,782.90
2023-05-16T12:58:03.909Z,780.63
2023-05-16T13:00:32.710Z,764.88
2023-05-16T13:03:01.597Z,746.67
2023-05-16T13:05:30.140Z,753.95
2023-05-16T13:07:58.659Z,760.50
2023-05-16T13:10:27.439Z,786.00
2023-05-16T13:12:58.501Z,709.40
2023-05-16T13:15:29.733Z,734.63
2023-05-16T13:17:59.894Z,753.92
2023-05-16T13:20:29.152Z,771.60
2023-05-16T13:22:57.594Z,719.95
2023-05-16T13:25:26.228Z,768.88
2023-05-16T13:27:54.908Z,735.22
2023-05-16T13:30:24.572Z,766.63
2023-05-16T13:32:54.455Z,783.25
2023-05-16T13:35:22.908Z,745.10
2023-05-16T13:37:51.254Z,768.90
2023-05-16T13:40:19.889Z,782.92
2023-05-16T13:42:49.162Z,792.22
2023-05-16T13:45:17.682Z,750.42
2023-05-16T13:47:48.066Z,714.85
2023-05-16T13:50:18.204Z,773.38
2023-05-16T13:52:47.493Z,733.28
2023-05-16T13:55:16.163Z,731.85
2023-05-16T13:57:44.538Z,802.10
2023-05-16T14:02:45.144Z,749.05
2023-05-16T14:05:13.532Z,758.03
2023-05-16T14:07:46.200Z,872.78
2023-05-16T14:10:15.357Z,824.30
2023-05-16T14:12:43.751Z,832.85
2023-05-16T14:15:12.438Z,700.25
2023-05-16T14:17:40.918Z,724.78
2023-05-16T14:20:10.754Z,716.40
2023-05-16T14:22:39.588Z,831.53
2023-05-16T14:25:10.220Z,729.75
2023-05-16T14:27:45.148Z,760.05
2023-05-16T14:30:14.596Z,785.33
2023-05-16T14:32:43.115Z,749.53
2023-05-16T14:35:12.092Z,725.65
2023-05-16T14:37:40.547Z,750.75
2023-05-16T14:40:11.189Z,771.90
2023-05-16T14:42:39.723Z,744.53
2023-05-16T14:45:09.194Z,741.67
2023-05-16T14:47:37.699Z,737.92
2023-05-16T14:50:07.113Z,748.33
2023-05-16T14:52:35.503Z,753.03
2023-05-16T14:55:04.100Z,767.78
2023-05-16T14:57:34.649Z,706.15
2023-05-16T15:00:03.099Z,770.00
2023-05-16T15:02:31.505Z,794.83
2023-05-16T15:05:00.070Z,694.05
2023-05-16T15:07:28.472Z,674.67
2023-05-16T15:09:56.932Z,801.10
2023-05-16T15:12:25.287Z,759.05
2023-05-16T15:14:55.009Z,691.60
2023-05-16T15:17:23.715Z,698.35
2023-05-16T15:19:54.200Z,912.75
2023-05-16T15:22:22.588Z,743.50
2023-05-16T15:24:51.760Z,745.80
2023-05-16T15:27:20.163Z,782.03
2023-05-16T15:29:48.554Z,904.15
2023-05-16T15:32:18.844Z,764.47
2023-05-16T15:34:47.292Z,808.72
2023-05-16T15:37:15.664Z,697.25
2023-05-16T15:39:44.110Z,690.38
2023-05-16T15:42:13.223Z,674.40
2023-05-16T15:44:41.832Z,618.63
2023-05-16T15:47:10.733Z,708.25
2023-05-16T15:49:40.532Z,784.38
2023-05-16T15:52:09.094Z,682.40
2023-05-16T15:54:38.189Z,748.30
2023-05-16T15:57:07.119Z,767.63
2023-05-16T15:59:35.757Z,738.42
2023-05-16T16:02:05.455Z,708.40
2023-05-16T16:04:33.916Z,769.90
2023-05-16T16:07:03.677Z,764.08
2023-05-16T16:09:32.290Z,789.25
2023-05-16T16:12:00.680Z,645.83
2023-05-16T16:14:29.115Z,710.28
2023-05-16T16:16:57.452Z,648.72
2023-05-16T16:19:26.791Z,759.58
2023-05-16T16:21:55.315Z,654.05
2023-05-16T16:24:25.145Z,726.88
2023-05-16T16:26:53.703Z,640.95
2023-05-16T16:29:22.267Z,843.33
2023-05-16T16:31:50.865Z,635.20
2023-05-16T16:34:21.010Z,704.80
2023-05-16T16:36:51.479Z,749.42
2023-05-16T16:39:19.944Z,760.45
2023-05-16T16:41:49.796Z,666.45
2023-05-16T16:44:18.246Z,743.08
2023-05-16T16:46:46.674Z,669.83
2023-05-16T16:49:15.247Z,695.95
2023-05-16T16:51:43.680Z,667.20
2023-05-16T16:54:12.309Z,582.28
2023-05-16T16:56:40.684Z,588.95
2023-05-16T16:59:11.614Z,687.67
2023-05-16T17:01:40.075Z,667.35
2023-05-16T17:04:08.570Z,617.78
2023-05-16T17:06:37.033Z,618.22
2023-05-16T17:09:06.959Z,626.35
2023-05-16T17:11:36.424Z,710.58
2023-05-16T17:14:06.189Z,602.60
2023-05-16T17:16:36.408Z,671.88
2023-05-16T17:19:05.433Z,659.20
2023-05-16T17:21:34.639Z,609.05
2023-05-16T17:24:06.507Z,631.80
2023-05-16T17:26:36.166Z,632.13
2023-05-16T17:30:13.187Z,632.50
2023-05-16T17:32:43.288Z,647.92
2023-05-16T17:35:11.800Z,610.92
2023-05-16T17:37:41.444Z,634.28
2023-05-16T17:40:16.601Z,575.45
2023-05-16T17:46:29.286Z,756.00
2023-05-16T17:48:59.682Z,598.45
2023-05-16T17:51:28.247Z,632.95
2023-05-16T17:54:00.662Z,652.05
2023-05-16T17:56:29.093Z,651.47
2023-05-16T17:58:57.530Z,703.45
2023-05-16T18:01:26.109Z,786.72
2023-05-16T18:03:54.857Z,586.00
2023-05-16T18:06:24.987Z,606.95
2023-05-16T18:08:54.189Z,596.47
2023-05-16T18:11:34.720Z,610.75
2023-05-16T18:14:12.796Z,585.20
2023-05-16T18:16:41.659Z,630.38
2023-05-16T18:19:10.520Z,633.83
2023-05-16T18:21:41.050Z,644.50
2023-05-16T18:24:11.531Z,663.97
2023-05-16T18:26:47.210Z,592.00
2023-05-16T18:29:18.056Z,672.50
2023-05-16T18:31:46.774Z,581.15
2023-05-16T18:34:15.243Z,715.42
2023-05-16T18:36:45.197Z,714.85
2023-05-16T18:39:13.643Z,608.10
2023-05-16T18:41:46.583Z,638.67
2023-05-16T18:44:16.945Z,601.03
2023-05-16T18:46:46.660Z,611.60
2023-05-16T18:49:15.137Z,578.40
2023-05-16T18:51:45.634Z,673.33
2023-05-16T18:54:14.058Z,543.88
2023-05-16T18:56:42.920Z,527.00
2023-05-16T18:59:11.385Z,549.72
2023-05-16T19:01:42.191Z,573.88
2023-05-16T19:04:10.927Z,518.42
2023-05-16T19:06:39.590Z,503.23
2023-05-16T19:09:09.431Z,511.77
2023-05-16T19:11:38.266Z,521.60
2023-05-16T19:14:07.541Z,531.40
2023-05-16T19:16:36.273Z,538.08
2023-05-16T19:19:05.815Z,546.70
2023-05-16T19:21:34.526Z,583.08
2023-05-16T19:24:03.574Z,549.03
2023-05-16T19:26:33.498Z,501.77
2023-05-16T19:29:04.337Z,486.52
2023-05-16T19:31:32.805Z,490.52
2023-05-16T19:34:01.415Z,523.28
2023-05-16T19:36:29.952Z,541.80
2023-05-16T19:38:58.424Z,603.40
2023-05-16T19:41:27.598Z,564.40
2023-05-16T19:43:57.954Z,488.77
2023-05-16T19:46:26.452Z,534.97
2023-05-16T19:48:55.012Z,529.40
2023-05-16T19:51:37.156Z,640.53
2023-05-16T19:54:09.552Z,501.92
2023-05-16T19:56:38.206Z,538.67
2023-05-16T19:59:08.241Z,512.72
2023-05-16T20:01:36.742Z,494.38
2023-05-16T20:04:06.318Z,494.73
2023-05-16T20:06:42.037Z,494.65
2023-05-16T20:09:11.237Z,488.65
2023-05-16T20:11:39.707Z,471.70
2023-05-16T20:14:09.492Z,533.75
2023-05-16T20:16:37.977Z,450.05
2023-05-16T20:19:07.113Z,543.47
2023-05-16T20:21:35.818Z,483.73
2023-05-16T20:24:05.877Z,523.58
2023-05-16T20:26:34.280Z,459.95
2023-05-16T20:29:03.732Z,481.55
2023-05-16T20:31:33.753Z,627.80
2023-05-16T20:34:02.243Z,496.77
2023-05-16T20:36:30.912Z,448.13
2023-05-16T20:38:59.363Z,495.27
2023-05-16T20:41:27.756Z,467.27
2023-05-16T20:43:56.263Z,489.88
2023-05-16T20:46:24.635Z,499.50
2023-05-16T20:48:54.456Z,523.75
2023-05-16T20:51:22.966Z,470.20
2023-05-16T20:53:51.372Z,482.48
2023-05-16T20:56:19.876Z,600.25
2023-05-16T20:58:48.691Z,493.70
2023-05-16T21:01:17.124Z,458.38
2023-05-16T21:03:45.683Z,501.63
2023-05-16T21:06:15.650Z,520.60
2023-05-16T21:08:44.174Z,463.45
2023-05-16T21:11:12.726Z,492.85
2023-05-16T21:13:41.198Z,448.73
2023-05-16T21:16:10.082Z,468.90
2023-05-16T21:18:38.858Z,432.70
2023-05-16T21:21:08.035Z,472.20
2023-05-16T21:23:37.937Z,462.75
2023-05-16T21:26:06.582Z,445.05
2023-05-16T21:28:42.659Z,462.48
2023-05-16T21:31:19.821Z,477.65
2023-05-16T21:33:51.909Z,490.40
2023-05-16T21:36:20.800Z,448.85
2023-05-16T21:38:50.790Z,486.92
2023-05-16T21:41:19.163Z,462.38
2023-05-16T21:43:47.707Z,467.25
2023-05-16T21:46:16.169Z,463.63
2023-05-16T21:48:44.727Z,484.95
2023-05-16T21:51:13.432Z,481.15
2023-05-16T21:53:41.830Z,474.13
2023-05-16T21:56:11.626Z,427.85
2023-05-16T21:58:42.362Z,449.02
2023-05-16T22:01:11.670Z,444.27
2023-05-16T22:03:40.367Z,381.55
2023-05-16T22:06:08.966Z,436.55
2023-05-16T22:08:37.419Z,457.63
2023-05-16T22:11:06.097Z,414.90
2023-05-16T22:13:35.970Z,425.60
2023-05-16T22:16:05.439Z,461.15
2023-05-16T22:18:34.299Z,456.58
2023-05-16T22:21:02.955Z,465.10
2023-05-16T22:23:31.739Z,471.88
2023-05-16T22:26:00.151Z,407.58
2023-05-16T22:28:28.632Z,428.48
2023-05-16T22:30:58.567Z,399.08
2023-05-16T22:33:27.218Z,407.35
2023-05-16T22:35:55.713Z,391.55
2023-05-16T22:38:24.317Z,412.00
2023-05-16T22:40:52.792Z,444.52
2023-05-16T22:43:21.174Z,369.08
2023-05-16T22:45:51.368Z,381.63
2023-05-16T22:48:21.604Z,382.23
2023-05-16T22:50:50.058Z,457.40
2023-05-16T22:53:18.654Z,424.40
2023-05-16T22:55:47.168Z,447.75
2023-05-16T22:58:15.576Z,450.63
2023-05-16T23:00:44.061Z,437.50
2023-05-16T23:03:12.637Z,367.70
2023-05-16T23:05:42.479Z,427.58
2023-05-16T23:08:10.889Z,413.27
2023-05-16T23:10:39.302Z,463.00
2023-05-16T23:13:07.743Z,424.13
2023-05-16T23:15:36.247Z,451.00
2023-05-16T23:18:05.178Z,384.95
2023-05-16T23:20:33.727Z,427.17
2023-05-16T23:23:03.542Z,476.60
2023-05-16T23:25:31.969Z,577.38
2023-05-16T23:28:00.336Z,592.25
2023-05-16T23:30:28.797Z,496.73
2023-05-16T23:32:57.223Z,537.50
2023-05-16T23:35:25.982Z,383.48
2023-05-16T23:37:54.962Z,460.95
2023-05-16T23:40:24.691Z,431.70
2023-05-16T23:42:53.068Z,485.48
2023-05-16T23:45:21.741Z,470.17
2023-05-16T23:47:50.222Z,519.33
2023-05-16T23:50:18.742Z,470.40
2023-05-16T23:52:47.125Z,506.67
2023-05-16T23:55:15.981Z,461.02
2023-05-16T23:57:45.764Z,487.50
